createdAt,value
2023-02-09T00:00:33.503Z,1019.65
2023-02-09T00:01:33.488Z,1019.61
2023-02-09T00:02:33.459Z,1019.60
2023-02-09T00:03:33.477Z,1019.62
2023-02-09T00:04:33.424Z,1019.57
2023-02-09T00:05:33.453Z,1019.51
2023-02-09T00:06:33.413Z,1019.58
2023-02-09T00:07:33.351Z,1019.58
2023-02-09T00:08:33.322Z,1019.59
2023-02-09T00:09:33.303Z,1019.57
2023-02-09T00:10:33.285Z,1019.58
2023-02-09T00:11:33.287Z,1019.53
2023-02-09T00:12:33.230Z,1019.49
2023-02-09T00:13:33.208Z,1019.51
2023-02-09T00:14:33.192Z,1019.46
2023-02-09T00:15:33.165Z,1019.48
2023-02-09T00:16:33.165Z,1019.48
2023-02-09T00:17:33.178Z,1019.50
2023-02-09T00:18:33.099Z,1019.47
2023-02-09T00:19:33.463Z,1019.47
2023-02-09T00:20:33.051Z,1019.49
2023-02-09T00:21:33.029Z,1019.49
2023-02-09T00:22:33.000Z,1019.49
2023-02-09T00:23:33.012Z,1019.53
2023-02-09T00:24:32.957Z,1019.48
2023-02-09T00:25:32.936Z,1019.45
2023-02-09T00:26:32.911Z,1019.51
2023-02-09T00:27:32.890Z,1019.48
2023-02-09T00:28:32.893Z,1019.47
2023-02-09T00:29:32.866Z,1019.46
2023-02-09T00:30:32.894Z,1019.46
2023-02-09T00:31:32.884Z,1019.45
2023-02-09T00:32:32.776Z,1019.46
2023-02-09T00:33:32.759Z,1019.42
2023-02-09T00:34:32.768Z,1019.45
2023-02-09T00:35:32.715Z,1019.39
2023-02-09T00:36:32.682Z,1019.41
2023-02-09T00:37:32.665Z,1019.42
2023-02-09T00:38:32.637Z,1019.40
2023-02-09T00:39:32.629Z,1019.46
2023-02-09T00:40:32.591Z,1019.40
2023-02-09T00:41:32.579Z,1019.36
2023-02-09T00:42:32.612Z,1019.38
2023-02-09T00:43:32.534Z,1019.36
2023-02-09T00:44:32.502Z,1019.41
2023-02-09T00:45:32.496Z,1019.40
2023-02-09T00:46:32.456Z,1019.35
2023-02-09T00:47:32.429Z,1019.36
2023-02-09T00:48:32.434Z,1019.33
2023-02-09T00:49:32.395Z,1019.32
2023-02-09T00:50:32.369Z,1019.31
2023-02-09T00:51:32.341Z,1019.34
2023-02-09T00:52:32.315Z,1019.31
2023-02-09T00:53:32.318Z,1019.33
2023-02-09T00:54:32.269Z,1019.34
2023-02-09T00:55:32.248Z,1019.31
2023-02-09T00:56:32.230Z,1019.32
2023-02-09T00:57:32.200Z,1019.33
2023-02-09T00:58:32.207Z,1019.35
2023-02-09T00:59:32.154Z,1019.34
2023-02-09T01:00:32.163Z,1019.31
2023-02-09T01:01:32.209Z,1019.33
2023-02-09T01:02:32.086Z,1019.29
2023-02-09T01:03:32.077Z,1019.34
2023-02-09T01:04:32.065Z,1019.33
2023-02-09T01:05:32.041Z,1019.32
2023-02-09T01:06:32.002Z,1019.32
2023-02-09T01:07:31.969Z,1019.27
2023-02-09T01:08:31.944Z,1019.29
2023-02-09T01:09:31.919Z,1019.31
2023-02-09T01:10:31.930Z,1019.32
2023-02-09T01:11:31.880Z,1019.32
2023-02-09T01:12:31.924Z,1019.30
2023-02-09T01:13:31.830Z,1019.31
2023-02-09T01:14:31.816Z,1019.31
2023-02-09T01:15:31.787Z,1019.30
2023-02-09T01:16:31.942Z,1019.33
2023-02-09T01:17:31.746Z,1019.31
2023-02-09T01:18:31.750Z,1019.28
2023-02-09T01:19:31.692Z,1019.24
2023-02-09T01:20:31.668Z,1019.25
2023-02-09T01:21:31.659Z,1019.26
2023-02-09T01:22:31.660Z,1019.25
2023-02-09T01:23:31.644Z,1019.22
2023-02-09T01:24:31.655Z,1019.27
2023-02-09T01:25:31.563Z,1019.30
2023-02-09T01:26:31.529Z,1019.32
2023-02-09T01:27:31.556Z,1019.35
2023-02-09T01:28:31.512Z,1019.39
2023-02-09T01:29:31.483Z,1019.33
2023-02-09T01:30:31.543Z,1019.32
2023-02-09T01:31:31.734Z,1019.30
2023-02-09T01:32:31.389Z,1019.36
2023-02-09T01:33:31.366Z,1019.29
2023-02-09T01:34:31.346Z,1019.26
2023-02-09T01:35:32.384Z,1019.20
2023-02-09T01:36:31.338Z,1019.17
2023-02-09T01:37:31.331Z,1019.20
2023-02-09T01:38:31.259Z,1019.23
2023-02-09T01:39:31.232Z,1019.29
2023-02-09T01:40:31.204Z,1019.20
2023-02-09T01:41:31.185Z,1019.22
2023-02-09T01:42:31.162Z,1019.18
2023-02-09T01:43:31.203Z,1019.18
2023-02-09T01:44:31.124Z,1019.22
2023-02-09T01:45:31.098Z,1019.19
2023-02-09T01:46:31.160Z,1019.19
2023-02-09T01:47:31.048Z,1019.21
2023-02-09T01:48:31.055Z,1019.18
2023-02-09T01:49:31.045Z,1019.16
2023-02-09T01:50:30.978Z,1019.15
2023-02-09T01:51:30.954Z,1019.13
2023-02-09T01:52:30.945Z,1019.11
2023-02-09T01:53:30.911Z,1019.07
2023-02-09T01:54:30.887Z,1019.13
2023-02-09T01:55:30.869Z,1019.09
2023-02-09T01:56:30.857Z,1019.09
2023-02-09T01:57:30.817Z,1019.10
2023-02-09T01:58:30.797Z,1019.11
2023-02-09T01:59:30.779Z,1019.06
2023-02-09T02:00:30.749Z,1019.07
2023-02-09T02:01:30.851Z,1019.01
2023-02-09T02:02:30.750Z,1019.05
2023-02-09T02:03:30.684Z,1019.04
2023-02-09T02:04:30.662Z,1018.96
2023-02-09T02:05:30.672Z,1018.97
2023-02-09T02:06:30.617Z,1018.97
2023-02-09T02:07:30.600Z,1019.02
2023-02-09T02:08:30.610Z,1018.96
2023-02-09T02:09:30.538Z,1018.94
2023-02-09T02:10:30.549Z,1018.91
2023-02-09T02:11:30.529Z,1018.87
2023-02-09T02:12:30.474Z,1018.84
2023-02-09T02:13:30.449Z,1018.83
2023-02-09T02:14:30.427Z,1018.79
2023-02-09T02:15:30.434Z,1018.85
2023-02-09T02:16:30.380Z,1018.80
2023-02-09T02:17:30.437Z,1018.79
2023-02-09T02:18:30.330Z,1018.81
2023-02-09T02:19:30.332Z,1018.78
2023-02-09T02:20:30.283Z,1018.74
2023-02-09T02:21:30.299Z,1018.68
2023-02-09T02:22:30.241Z,1018.73
2023-02-09T02:23:30.212Z,1018.75
2023-02-09T02:24:30.189Z,1018.69
2023-02-09T02:25:30.164Z,1018.73
2023-02-09T02:26:30.145Z,1018.74
2023-02-09T02:27:30.166Z,1018.73
2023-02-09T02:28:30.190Z,1018.66
2023-02-09T02:29:30.069Z,1018.63
2023-02-09T02:30:30.086Z,1018.68
2023-02-09T02:31:30.153Z,1018.65
2023-02-09T02:32:30.005Z,1018.64
2023-02-09T02:33:30.022Z,1018.65
2023-02-09T02:34:29.955Z,1018.64
2023-02-09T02:35:29.931Z,1018.61
2023-02-09T02:36:29.922Z,1018.65
2023-02-09T02:37:29.886Z,1018.63
2023-02-09T02:38:29.894Z,1018.65
2023-02-09T02:39:29.839Z,1018.61
2023-02-09T02:40:29.823Z,1018.58
2023-02-09T02:41:29.793Z,1018.54
2023-02-09T02:42:29.794Z,1018.59
2023-02-09T02:43:29.777Z,1018.53
2023-02-09T02:44:29.750Z,1018.46
2023-02-09T02:45:29.700Z,1018.45
2023-02-09T02:46:29.699Z,1018.45
2023-02-09T02:47:29.652Z,1018.46
2023-02-09T02:48:29.663Z,1018.45
2023-02-09T02:49:29.621Z,1018.45
2023-02-09T02:50:29.604Z,1018.50
2023-02-09T02:51:29.595Z,1018.51
2023-02-09T02:52:29.547Z,1018.43
2023-02-09T02:53:29.518Z,1018.42
2023-02-09T02:54:29.498Z,1018.46
2023-02-09T02:55:29.490Z,1018.48
2023-02-09T02:56:29.476Z,1018.45
2023-02-09T02:57:29.432Z,1018.46
2023-02-09T02:58:29.436Z,1018.48
2023-02-09T02:59:29.382Z,1018.47
2023-02-09T03:00:29.360Z,1018.46
2023-02-09T03:01:29.374Z,1018.44
2023-02-09T03:02:29.331Z,1018.44
2023-02-09T03:03:29.325Z,1018.46
2023-02-09T03:04:29.270Z,1018.42
2023-02-09T03:05:29.292Z,1018.40
2023-02-09T03:06:29.221Z,1018.44
2023-02-09T03:07:29.203Z,1018.44
2023-02-09T03:08:29.209Z,1018.45
2023-02-09T03:09:29.202Z,1018.45
2023-02-09T03:10:29.128Z,1018.50
2023-02-09T03:11:29.103Z,1018.47
2023-02-09T03:12:29.085Z,1018.49
2023-02-09T03:13:29.077Z,1018.53
2023-02-09T03:14:29.034Z,1018.58
2023-02-09T03:15:29.052Z,1018.55
2023-02-09T03:16:29.024Z,1018.58
2023-02-09T03:17:28.964Z,1018.57
2023-02-09T03:18:28.950Z,1018.54
2023-02-09T03:19:28.919Z,1018.56
2023-02-09T03:20:28.897Z,1018.51
2023-02-09T03:21:28.902Z,1018.47
2023-02-09T03:22:28.849Z,1018.53
2023-02-09T03:23:28.823Z,1018.50
2023-02-09T03:24:28.806Z,1018.49
2023-02-09T03:25:28.779Z,1018.52
2023-02-09T03:26:28.784Z,1018.44
2023-02-09T03:27:28.729Z,1018.46
2023-02-09T03:28:28.765Z,1018.44
2023-02-09T03:29:28.683Z,1018.44
2023-02-09T03:30:28.716Z,1018.39
2023-02-09T03:31:28.751Z,1018.43
2023-02-09T03:32:28.614Z,1018.44
2023-02-09T03:33:28.589Z,1018.39
2023-02-09T03:34:28.570Z,1018.42
2023-02-09T03:35:28.586Z,1018.42
2023-02-09T03:36:28.554Z,1018.45
2023-02-09T03:37:28.546Z,1018.45
2023-02-09T03:38:28.495Z,1018.48
2023-02-09T03:39:28.462Z,1018.44
2023-02-09T03:40:28.430Z,1018.47
2023-02-09T03:41:28.415Z,1018.46
2023-02-09T03:42:28.383Z,1018.39
2023-02-09T03:43:28.361Z,1018.41
2023-02-09T03:44:28.438Z,1018.39
2023-02-09T03:45:28.311Z,1018.38
2023-02-09T03:46:28.362Z,1018.32
2023-02-09T03:47:28.270Z,1018.34
2023-02-09T03:48:28.247Z,1018.33
2023-02-09T03:49:28.220Z,1018.31
2023-02-09T03:50:28.198Z,1018.31
2023-02-09T03:51:28.202Z,1018.31
2023-02-09T03:52:28.153Z,1018.30
2023-02-09T03:53:28.127Z,1018.31
2023-02-09T03:54:28.121Z,1018.34
2023-02-09T03:55:28.090Z,1018.30
2023-02-09T03:56:28.085Z,1018.31
2023-02-09T03:57:28.036Z,1018.30
2023-02-09T03:58:28.011Z,1018.29
2023-02-09T03:59:27.995Z,1018.29
2023-02-09T04:00:28.030Z,1018.25
2023-02-09T04:01:27.941Z,1018.22
2023-02-09T04:02:28.056Z,1018.18
2023-02-09T04:03:27.894Z,1018.21
2023-02-09T04:04:27.902Z,1018.22
2023-02-09T04:05:27.846Z,1018.27
2023-02-09T04:06:27.831Z,1018.28
2023-02-09T04:07:27.797Z,1018.23
2023-02-09T04:08:27.777Z,1018.24
2023-02-09T04:09:27.778Z,1018.21
2023-02-09T04:10:27.756Z,1018.23
2023-02-09T04:11:27.700Z,1018.19
2023-02-09T04:12:27.684Z,1018.13
2023-02-09T04:13:27.656Z,1018.13
2023-02-09T04:14:27.637Z,1018.05
2023-02-09T04:15:27.641Z,1018.03
2023-02-09T04:16:27.615Z,1018.06
2023-02-09T04:17:27.572Z,1018.06
2023-02-09T04:18:27.544Z,1017.98
2023-02-09T04:19:27.548Z,1018.07
2023-02-09T04:20:27.503Z,1018.04
2023-02-09T04:21:27.467Z,1018.09
2023-02-09T04:22:27.448Z,1018.05
2023-02-09T04:23:27.423Z,1018.06
2023-02-09T04:24:27.431Z,1018.05
2023-02-09T04:25:27.407Z,1018.05
2023-02-09T04:26:27.355Z,1018.00
2023-02-09T04:27:27.362Z,1017.97
2023-02-09T04:28:27.372Z,1018.00
2023-02-09T04:29:27.286Z,1017.93
2023-02-09T04:30:27.289Z,1017.93
2023-02-09T04:31:27.416Z,1017.95
2023-02-09T04:32:27.218Z,1017.93
2023-02-09T04:33:27.192Z,1017.91
2023-02-09T04:34:27.222Z,1017.93
2023-02-09T04:35:27.177Z,1017.92
2023-02-09T04:36:27.124Z,1017.88
2023-02-09T04:37:27.108Z,1017.92
2023-02-09T04:38:27.077Z,1017.94
2023-02-09T04:39:27.052Z,1017.94
2023-02-09T04:40:27.043Z,1017.95
2023-02-09T04:41:27.067Z,1017.95
2023-02-09T04:42:26.992Z,1017.98
2023-02-09T04:43:26.961Z,1017.98
2023-02-09T04:44:26.939Z,1017.94
2023-02-09T04:45:27.000Z,1017.94
2023-02-09T04:46:26.890Z,1017.93
2023-02-09T04:47:26.918Z,1017.95
2023-02-09T04:48:26.844Z,1017.88
2023-02-09T04:49:26.820Z,1017.96
2023-02-09T04:50:26.801Z,1017.93
2023-02-09T04:51:26.774Z,1017.97
2023-02-09T04:52:26.752Z,1017.91
2023-02-09T04:53:26.746Z,1017.88
2023-02-09T04:54:26.702Z,1017.94
2023-02-09T04:55:26.684Z,1017.92
2023-02-09T04:56:26.655Z,1017.92
2023-02-09T04:57:26.647Z,1017.91
2023-02-09T04:58:26.618Z,1017.84
2023-02-09T04:59:26.588Z,1017.86
2023-02-09T05:00:26.562Z,1017.82
2023-02-09T05:01:26.592Z,1017.81
2023-02-09T05:02:26.514Z,1017.77
2023-02-09T05:03:26.556Z,1017.76
2023-02-09T05:04:26.475Z,1017.79
2023-02-09T05:05:26.451Z,1017.81
2023-02-09T05:06:26.430Z,1017.77
2023-02-09T05:07:26.403Z,1017.77
2023-02-09T05:08:26.379Z,1017.79
2023-02-09T05:09:26.385Z,1017.76
2023-02-09T05:10:26.329Z,1017.80
2023-02-09T05:11:26.324Z,1017.81
2023-02-09T05:12:26.286Z,1017.79
2023-02-09T05:13:26.265Z,1017.76
2023-02-09T05:14:26.276Z,1017.73
2023-02-09T05:15:26.223Z,1017.69
2023-02-09T05:16:26.215Z,1017.74
2023-02-09T05:17:26.183Z,1017.73
2023-02-09T05:18:26.155Z,1017.72
2023-02-09T05:19:26.122Z,1017.70
2023-02-09T05:20:26.101Z,1017.66
2023-02-09T05:21:26.110Z,1017.63
2023-02-09T05:22:26.048Z,1017.63
2023-02-09T05:23:26.029Z,1017.61
2023-02-09T05:24:26.036Z,1017.63
2023-02-09T05:25:25.986Z,1017.65
2023-02-09T05:26:25.959Z,1017.72
2023-02-09T05:27:25.954Z,1017.70
2023-02-09T05:28:25.961Z,1017.73
2023-02-09T05:29:25.890Z,1017.75
2023-02-09T05:30:25.866Z,1017.77
2023-02-09T05:31:25.979Z,1017.83
2023-02-09T05:32:25.887Z,1017.87
2023-02-09T05:33:25.813Z,1017.92
2023-02-09T05:34:25.773Z,1017.90
2023-02-09T05:35:25.782Z,1017.86
2023-02-09T05:36:25.719Z,1017.87
2023-02-09T05:37:25.701Z,1017.87
2023-02-09T05:38:25.724Z,1017.89
2023-02-09T05:39:25.656Z,1017.87
2023-02-09T05:40:25.631Z,1017.88
2023-02-09T05:41:25.604Z,1017.88
2023-02-09T05:42:25.604Z,1017.91
2023-02-09T05:43:25.562Z,1017.97
2023-02-09T05:44:25.562Z,1017.94
2023-02-09T05:45:25.552Z,1017.94
2023-02-09T05:46:25.556Z,1017.89
2023-02-09T05:47:25.477Z,1017.92
2023-02-09T05:48:25.444Z,1017.93
2023-02-09T05:49:25.419Z,1017.91
2023-02-09T05:50:25.429Z,1017.93
2023-02-09T05:51:25.376Z,1017.85
2023-02-09T05:52:25.346Z,1017.85
2023-02-09T05:53:25.326Z,1017.77
2023-02-09T05:54:25.300Z,1017.75
2023-02-09T05:55:25.304Z,1017.63
2023-02-09T05:56:25.259Z,1017.58
2023-02-09T05:57:25.232Z,1017.55
2023-02-09T05:58:25.203Z,1017.57
2023-02-09T05:59:25.181Z,1017.57
2023-02-09T06:00:25.292Z,1017.53
2023-02-09T06:01:25.132Z,1017.60
2023-02-09T06:02:25.160Z,1017.63
2023-02-09T06:03:25.130Z,1017.62
2023-02-09T06:04:25.062Z,1017.63
2023-02-09T06:05:25.039Z,1017.66
2023-02-09T06:06:25.012Z,1017.72
2023-02-09T06:07:25.020Z,1017.73
2023-02-09T06:08:24.965Z,1017.75
2023-02-09T06:09:24.943Z,1017.76
2023-02-09T06:10:24.939Z,1017.79
2023-02-09T06:11:24.899Z,1017.80
2023-02-09T06:12:24.871Z,1017.84
2023-02-09T06:13:24.868Z,1017.86
2023-02-09T06:14:24.822Z,1017.88
2023-02-09T06:15:24.845Z,1017.89
2023-02-09T06:16:24.781Z,1017.90
2023-02-09T06:17:24.794Z,1017.93
2023-02-09T06:18:24.734Z,1017.95
2023-02-09T06:19:24.731Z,1017.95
2023-02-09T06:20:24.683Z,1018.00
2023-02-09T06:21:24.681Z,1018.01
2023-02-09T06:22:24.641Z,1017.96
2023-02-09T06:23:24.668Z,1017.96
2023-02-09T06:24:24.665Z,1017.95
2023-02-09T06:25:24.584Z,1017.90
2023-02-09T06:26:24.544Z,1017.86
2023-02-09T06:27:24.527Z,1017.88
2023-02-09T06:28:24.556Z,1017.92
2023-02-09T06:29:24.475Z,1017.95
2023-02-09T06:30:24.452Z,1017.96
2023-02-09T06:31:24.532Z,1017.98
2023-02-09T06:32:24.417Z,1018.01
2023-02-09T06:33:24.380Z,1018.00
2023-02-09T06:34:24.355Z,1018.09
2023-02-09T06:35:24.442Z,1018.07
2023-02-09T06:36:24.313Z,1018.10
2023-02-09T06:37:24.292Z,1018.06
2023-02-09T06:38:24.263Z,1018.09
2023-02-09T06:39:24.320Z,1018.10
2023-02-09T06:40:24.223Z,1018.05
2023-02-09T06:41:24.216Z,1018.11
2023-02-09T06:42:24.175Z,1018.10
2023-02-09T06:43:24.143Z,1018.17
2023-02-09T06:44:24.123Z,1018.17
2023-02-09T06:45:24.129Z,1018.24
2023-02-09T06:46:24.138Z,1018.21
2023-02-09T06:47:24.057Z,1018.27
2023-02-09T06:48:24.026Z,1018.25
2023-02-09T06:49:24.007Z,1018.23
2023-02-09T06:50:23.982Z,1018.25
2023-02-09T06:51:23.962Z,1018.26
2023-02-09T06:52:23.940Z,1018.31
2023-02-09T06:53:23.919Z,1018.30
2023-02-09T06:54:23.892Z,1018.32
2023-02-09T06:55:23.899Z,1018.26
2023-02-09T06:56:23.941Z,1018.25
2023-02-09T06:57:23.818Z,1018.30
2023-02-09T06:58:23.789Z,1018.26
2023-02-09T06:59:23.772Z,1018.23
2023-02-09T07:00:23.772Z,1018.24
2023-02-09T07:01:23.807Z,1018.25
2023-02-09T07:02:23.731Z,1018.27
2023-02-09T07:03:23.681Z,1018.29
2023-02-09T07:04:23.655Z,1018.28
2023-02-09T07:05:23.630Z,1018.27
2023-02-09T07:06:23.622Z,1018.29
2023-02-09T07:07:25.462Z,1018.29
2023-02-09T07:08:23.563Z,1018.27
2023-02-09T07:09:23.532Z,1018.27
2023-02-09T07:10:23.510Z,1018.28
2023-02-09T07:11:23.490Z,1018.29
2023-02-09T07:12:23.466Z,1018.25
2023-02-09T07:13:23.478Z,1018.28
2023-02-09T07:14:23.419Z,1018.29
2023-02-09T07:15:23.393Z,1018.28
2023-02-09T07:16:23.411Z,1018.32
2023-02-09T07:17:23.347Z,1018.34
2023-02-09T07:18:23.340Z,1018.29
2023-02-09T07:19:23.327Z,1018.33
2023-02-09T07:20:23.273Z,1018.36
2023-02-09T07:21:23.253Z,1018.34
2023-02-09T07:22:23.232Z,1018.34
2023-02-09T07:23:23.211Z,1018.35
2023-02-09T07:24:23.190Z,1018.34
2023-02-09T07:25:23.162Z,1018.31
2023-02-09T07:26:23.136Z,1018.28
2023-02-09T07:27:23.139Z,1018.27
2023-02-09T07:28:23.195Z,1018.24
2023-02-09T07:29:23.082Z,1018.19
2023-02-09T07:30:23.112Z,1018.18
2023-02-09T07:31:23.118Z,1018.15
2023-02-09T07:32:23.020Z,1018.14
2023-02-09T07:33:22.995Z,1018.15
2023-02-09T07:34:23.007Z,1018.05
2023-02-09T07:35:22.929Z,1017.98
2023-02-09T07:36:22.906Z,1018.01
2023-02-09T07:37:22.890Z,1017.93
2023-02-09T07:38:22.861Z,1018.00
2023-02-09T07:39:22.865Z,1017.95
2023-02-09T07:40:22.821Z,1018.01
2023-02-09T07:41:22.792Z,1018.02
2023-02-09T07:42:23.473Z,1018.04
2023-02-09T07:43:22.741Z,1018.04
2023-02-09T07:44:22.720Z,1018.03
2023-02-09T07:45:22.700Z,1018.04
2023-02-09T07:46:22.706Z,1018.01
2023-02-09T07:47:22.664Z,1017.99
2023-02-09T07:48:22.645Z,1018.09
2023-02-09T07:49:22.617Z,1018.05
2023-02-09T07:50:22.600Z,1018.05
2023-02-09T07:51:22.588Z,1018.11
2023-02-09T07:52:22.556Z,1018.16
2023-02-09T07:53:22.508Z,1018.14
2023-02-09T07:54:22.491Z,1018.16
2023-02-09T07:55:22.472Z,1018.16
2023-02-09T07:56:22.442Z,1018.13
2023-02-09T07:57:22.426Z,1018.04
2023-02-09T07:58:22.406Z,1018.14
2023-02-09T07:59:22.385Z,1018.04
2023-02-09T08:00:22.388Z,1018.06
2023-02-09T08:01:22.440Z,1018.07
2023-02-09T08:02:22.309Z,1018.09
2023-02-09T08:03:22.342Z,1018.11
2023-02-09T08:04:22.293Z,1018.13
2023-02-09T08:05:22.259Z,1018.15
2023-02-09T08:06:26.046Z,1018.18
2023-02-09T08:07:22.192Z,1018.20
2023-02-09T08:08:22.168Z,1018.23
2023-02-09T08:09:22.144Z,1018.19
2023-02-09T08:10:22.121Z,1018.21
2023-02-09T08:11:22.142Z,1018.18
2023-02-09T08:12:22.124Z,1018.22
2023-02-09T08:13:22.052Z,1018.28
2023-02-09T08:14:22.067Z,1018.26
2023-02-09T08:15:22.018Z,1018.27
2023-02-09T08:16:22.019Z,1018.28
2023-02-09T08:17:21.988Z,1018.28
2023-02-09T08:18:21.942Z,1018.26
2023-02-09T08:19:21.937Z,1018.29
2023-02-09T08:20:21.907Z,1018.27
2023-02-09T08:21:21.876Z,1018.21
2023-02-09T08:22:21.875Z,1018.26
2023-02-09T08:23:21.852Z,1018.29
2023-02-09T08:24:21.811Z,1018.33
2023-02-09T08:25:21.784Z,1018.30
2023-02-09T08:26:21.765Z,1018.25
2023-02-09T08:27:21.764Z,1018.31
2023-02-09T08:28:22.773Z,1018.36
2023-02-09T08:29:21.697Z,1018.37
2023-02-09T08:30:21.675Z,1018.40
2023-02-09T08:31:21.902Z,1018.43
2023-02-09T08:32:21.628Z,1018.45
2023-02-09T08:33:21.607Z,1018.48
2023-02-09T08:34:21.644Z,1018.46
2023-02-09T08:35:21.562Z,1018.43
2023-02-09T08:36:21.543Z,1018.43
2023-02-09T08:37:21.521Z,1018.43
2023-02-09T08:38:21.500Z,1018.41
2023-02-09T08:39:21.471Z,1018.44
2023-02-09T08:40:21.480Z,1018.47
2023-02-09T08:41:21.425Z,1018.47
2023-02-09T08:42:21.405Z,1018.46
2023-02-09T08:43:21.388Z,1018.46
2023-02-09T08:44:21.359Z,1018.47
2023-02-09T08:45:21.356Z,1018.43
2023-02-09T08:46:21.507Z,1018.45
2023-02-09T08:47:21.294Z,1018.42
2023-02-09T08:48:21.278Z,1018.46
2023-02-09T08:49:21.253Z,1018.45
2023-02-09T08:50:21.228Z,1018.47
2023-02-09T08:51:21.237Z,1018.47
2023-02-09T08:52:21.183Z,1018.50
2023-02-09T08:53:21.162Z,1018.49
2023-02-09T08:54:21.194Z,1018.51
2023-02-09T08:55:21.126Z,1018.52
2023-02-09T08:56:21.104Z,1018.54
2023-02-09T08:57:21.078Z,1018.53
2023-02-09T08:58:21.075Z,1018.51
2023-02-09T08:59:21.032Z,1018.54
2023-02-09T09:00:21.035Z,1018.50
2023-02-09T09:01:21.066Z,1018.50
2023-02-09T09:02:20.963Z,1018.52
2023-02-09T09:03:20.979Z,1018.52
2023-02-09T09:04:20.931Z,1018.49
2023-02-09T09:05:20.959Z,1018.50
2023-02-09T09:06:20.879Z,1018.47
2023-02-09T09:07:20.860Z,1018.48
2023-02-09T09:08:20.837Z,1018.49
2023-02-09T09:09:20.809Z,1018.52
2023-02-09T09:10:20.798Z,1018.53
2023-02-09T09:11:20.813Z,1018.48
2023-02-09T09:12:20.754Z,1018.48
2023-02-09T09:13:20.759Z,1018.40
2023-02-09T09:14:20.703Z,1018.45
2023-02-09T09:15:20.678Z,1018.46
2023-02-09T09:16:20.701Z,1018.50
2023-02-09T09:17:20.665Z,1018.49
2023-02-09T09:18:20.616Z,1018.52
2023-02-09T09:19:20.634Z,1018.52
2023-02-09T09:20:20.581Z,1018.51
2023-02-09T09:21:20.546Z,1018.58
2023-02-09T09:22:20.529Z,1018.63
2023-02-09T09:23:20.503Z,1018.63
2023-02-09T09:24:20.484Z,1018.55
2023-02-09T09:25:20.457Z,1018.55
2023-02-09T09:26:20.482Z,1018.55
2023-02-09T09:27:20.464Z,1018.54
2023-02-09T09:28:20.457Z,1018.56
2023-02-09T09:29:20.379Z,1018.57
2023-02-09T09:30:20.383Z,1018.57
2023-02-09T09:31:20.476Z,1018.61
2023-02-09T09:32:20.391Z,1018.59
2023-02-09T09:33:20.296Z,1018.61
2023-02-09T09:34:20.298Z,1018.58
2023-02-09T09:35:20.256Z,1018.49
2023-02-09T09:36:20.246Z,1018.48
2023-02-09T09:37:20.211Z,1018.45
2023-02-09T09:38:20.182Z,1018.53
2023-02-09T09:39:20.160Z,1018.58
2023-02-09T09:40:20.160Z,1018.61
2023-02-09T09:41:20.175Z,1018.60
2023-02-09T09:42:20.092Z,1018.59
2023-02-09T09:43:20.068Z,1018.63
2023-02-09T09:44:20.050Z,1018.60
2023-02-09T09:45:20.025Z,1018.64
2023-02-09T09:46:20.094Z,1018.65
2023-02-09T09:47:20.011Z,1018.68
2023-02-09T09:48:19.961Z,1018.67
2023-02-09T09:49:19.987Z,1018.69
2023-02-09T09:50:20.053Z,1018.66
2023-02-09T09:51:19.960Z,1018.63
2023-02-09T09:52:19.879Z,1018.60
2023-02-09T09:53:19.859Z,1018.55
2023-02-09T09:54:19.836Z,1018.53
2023-02-09T09:55:19.837Z,1018.52
2023-02-09T09:56:19.794Z,1018.57
2023-02-09T09:57:19.765Z,1018.53
2023-02-09T09:58:19.766Z,1018.51
2023-02-09T09:59:19.729Z,1018.49
2023-02-09T10:00:19.802Z,1018.45
2023-02-09T10:01:19.710Z,1018.49
2023-02-09T10:02:19.671Z,1018.44
2023-02-09T10:03:19.647Z,1018.43
2023-02-09T10:04:19.671Z,1018.47
2023-02-09T10:05:19.665Z,1018.50
2023-02-09T10:06:19.592Z,1018.51
2023-02-09T10:07:21.255Z,1018.48
2023-02-09T10:08:19.529Z,1018.39
2023-02-09T10:09:19.509Z,1018.28
2023-02-09T10:10:19.586Z,1018.09
2023-02-09T10:11:19.515Z,1017.97
2023-02-09T10:12:19.460Z,1017.90
2023-02-09T10:13:19.418Z,1017.88
2023-02-09T10:14:19.407Z,1017.93
2023-02-09T10:15:19.377Z,1017.96
2023-02-09T10:16:19.401Z,1018.06
2023-02-09T10:17:19.401Z,1018.10
2023-02-09T10:18:19.312Z,1018.11
2023-02-09T10:19:19.302Z,1018.08
2023-02-09T10:20:19.315Z,1018.02
2023-02-09T10:21:19.251Z,1018.01
2023-02-09T10:22:19.264Z,1018.08
2023-02-09T10:23:19.207Z,1018.11
2023-02-09T10:24:19.187Z,1018.24
2023-02-09T10:25:19.170Z,1018.28
2023-02-09T10:26:19.147Z,1018.29
2023-02-09T10:27:19.148Z,1018.26
2023-02-09T10:28:19.180Z,1018.26
2023-02-09T10:29:19.076Z,1018.35
2023-02-09T10:30:19.144Z,1018.45
2023-02-09T10:31:19.127Z,1018.51
2023-02-09T10:32:19.033Z,1018.50
2023-02-09T10:33:18.993Z,1018.44
2023-02-09T10:34:18.999Z,1018.35
2023-02-09T10:35:18.979Z,1018.30
2023-02-09T10:36:18.930Z,1018.33
2023-02-09T10:37:18.952Z,1018.24
2023-02-09T10:38:18.914Z,1018.19
2023-02-09T10:39:18.862Z,1018.21
2023-02-09T10:40:18.952Z,1018.19
2023-02-09T10:41:18.821Z,1018.36
2023-02-09T10:42:19.306Z,1018.29
2023-02-09T10:43:18.849Z,1018.24
2023-02-09T10:44:18.758Z,1018.13
2023-02-09T10:45:18.752Z,1018.16
2023-02-09T10:46:18.809Z,1018.18
2023-02-09T10:47:18.698Z,1018.31
2023-02-09T10:48:18.680Z,1018.42
2023-02-09T10:49:18.658Z,1018.35
2023-02-09T10:50:18.629Z,1018.29
2023-02-09T10:51:18.612Z,1018.29
2023-02-09T10:52:18.620Z,1018.40
2023-02-09T10:53:18.579Z,1018.41
2023-02-09T10:54:18.567Z,1018.35
2023-02-09T10:55:18.526Z,1018.30
2023-02-09T10:56:18.537Z,1018.28
2023-02-09T10:57:18.530Z,1018.33
2023-02-09T10:58:18.468Z,1018.33
2023-02-09T10:59:18.445Z,1018.19
2023-02-09T11:00:18.571Z,1018.04
2023-02-09T11:01:18.420Z,1018.00
2023-02-09T11:02:18.400Z,1017.99
2023-02-09T11:03:18.391Z,1018.10
2023-02-09T11:04:18.378Z,1018.22
2023-02-09T11:05:18.322Z,1018.23
2023-02-09T11:06:18.307Z,1018.20
2023-02-09T11:07:18.309Z,1018.14
2023-02-09T11:08:18.263Z,1018.15
2023-02-09T11:09:18.248Z,1018.09
2023-02-09T11:10:18.283Z,1018.07
2023-02-09T11:11:18.230Z,1018.13
2023-02-09T11:12:18.185Z,1018.15
2023-02-09T11:13:18.185Z,1018.15
2023-02-09T11:14:18.142Z,1018.11
2023-02-09T11:15:18.115Z,1018.07
2023-02-09T11:16:18.197Z,1018.08
2023-02-09T11:17:18.077Z,1018.10
2023-02-09T11:18:18.053Z,1018.07
2023-02-09T11:19:18.029Z,1018.06
2023-02-09T11:20:18.115Z,1018.02
2023-02-09T11:21:17.989Z,1017.98
2023-02-09T11:22:18.019Z,1018.02
2023-02-09T11:23:17.957Z,1017.95
2023-02-09T11:24:17.941Z,1018.04
2023-02-09T11:25:17.902Z,1018.02
2023-02-09T11:26:17.914Z,1018.10
2023-02-09T11:27:17.864Z,1018.15
2023-02-09T11:28:17.940Z,1018.17
2023-02-09T11:29:17.835Z,1018.16
2023-02-09T11:30:17.884Z,1018.27
2023-02-09T11:31:17.831Z,1018.31
2023-02-09T11:32:17.804Z,1018.24
2023-02-09T11:33:17.738Z,1018.16
2023-02-09T11:34:17.725Z,1018.09
2023-02-09T11:35:17.697Z,1018.03
2023-02-09T11:36:17.675Z,1017.98
2023-02-09T11:37:17.665Z,1018.00
2023-02-09T11:38:17.664Z,1018.05
2023-02-09T11:39:17.615Z,1018.06
2023-02-09T11:40:17.598Z,1018.03
2023-02-09T11:41:17.571Z,1018.03
2023-02-09T11:42:17.558Z,1017.95
2023-02-09T11:43:17.551Z,1017.99
2023-02-09T11:44:17.509Z,1017.94
2023-02-09T11:45:17.491Z,1017.98
2023-02-09T11:46:17.548Z,1018.01
2023-02-09T11:47:17.503Z,1018.06
2023-02-09T11:48:17.448Z,1017.99
2023-02-09T11:49:17.407Z,1017.91
2023-02-09T11:50:17.392Z,1017.91
2023-02-09T11:51:17.486Z,1017.87
2023-02-09T11:52:17.352Z,1017.91
2023-02-09T11:53:17.348Z,1017.92
2023-02-09T11:54:17.320Z,1017.95
2023-02-09T11:55:17.285Z,1017.92
2023-02-09T11:56:17.267Z,1017.92
2023-02-09T11:57:17.246Z,1017.95
2023-02-09T11:58:17.248Z,1017.97
2023-02-09T11:59:17.197Z,1017.99
2023-02-09T12:00:17.178Z,1017.99
2023-02-09T12:01:17.615Z,1018.00
2023-02-09T12:02:17.142Z,1017.98
2023-02-09T12:03:17.247Z,1018.03
2023-02-09T12:04:17.130Z,1017.94
2023-02-09T12:05:17.074Z,1017.91